Time;durP1;ratioP1;P1;durP2;ratioP2;P2;SDS_P1;SDS_P2;PMS_P1;PMS_P2;Temp;Humidity;BMP_temperature;BMP_pressure;BME280_temperature;BME280_humidity;BME280_pressure;Samples;Min_cycle;Max_cycle;Signal;HPM_P1;HPM_P2
2022/01/30 00:00:17;;;;;;;2.20;0.80;;;;;;;6.92;70.35;98240.71;103923;1299;24290;-30
2022/01/30 00:02:43;;;;;;;2.50;1.00;;;;;;;6.97;71.09;98234.36;103882;1299;24328;-26
2022/01/30 00:05:08;;;;;;;10.70;0.90;;;;;;;6.98;70.43;98229.48;103880;1297;24291;-24
2022/01/30 00:07:34;;;;;;;1.80;0.80;;;;;;;6.76;72.48;98236.13;103907;1299;24258;-30
2022/01/30 00:10:01;;;;;;;2.70;1.10;;;;;;;6.94;71.05;98216.48;103931;1299;24212;-29
2022/01/30 00:12:39;;;;;;;2.30;1.00;;;;;;;6.98;71.03;98238.75;103858;1299;24288;-29
2022/01/30 00:15:05;;;;;;;3.00;0.80;;;;;;;6.88;71.32;98221.04;103753;1299;24213;-24
2022/01/30 00:17:43;;;;;;;2.90;0.70;;;;;;;6.62;71.94;98235.98;103921;1297;24271;-29
2022/01/30 00:20:15;;;;;;;2.30;0.80;;;;;;;6.55;71.99;98241.82;103876;1299;22514;-26
2022/01/30 00:22:48;;;;;;;0.50;0.20;;;;;;;6.52;71.44;98252.14;103898;1296;24210;-24
2022/01/30 00:25:17;;;;;;;10.80;0.70;;;;;;;6.60;70.06;98261.83;103874;1297;24317;-30
2022/01/30 00:27:48;;;;;;;1.50;0.30;;;;;;;6.67;69.03;98245.56;103936;1297;24222;-29
2022/01/30 00:30:15;;;;;;;0.80;0.30;;;;;;;6.73;69.21;98256.17;103910;1297;24257;-26
2022/01/30 00:32:41;;;;;;;1.70;0.70;;;;;;;6.46;71.26;98263.73;103959;1297;24173;-27
2022/01/30 00:35:09;;;;;;;3.60;0.80;;;;;;;6.69;71.49;98276.60;103861;1297;24337;-29
2022/01/30 00:37:40;;;;;;;1.90;0.50;;;;;;;6.36;71.59;98270.98;104056;1297;22713;-25
2022/01/30 00:40:06;;;;;;;4.30;0.70;;;;;;;6.23;70.19;98282.27;103900;1297;22746;-30
2022/01/30 00:42:32;;;;;;;2.50;0.40;;;;;;;5.96;68.86;98274.23;103901;1297;22711;-24
2022/01/30 00:44:58;;;;;;;1.90;0.20;;;;;;;5.82;69.44;98280.06;103897;1299;24460;-24
2022/01/30 00:47:23;;;;;;;5.60;3.50;;;;;;;5.47;71.38;98289.67;103904;1297;24318;-29
2022/01/30 00:49:49;;;;;;;7.00;0.70;;;;;;;5.26;71.24;98301.19;103805;1299;24202;-29
2022/01/30 00:52:16;;;;;;;6.80;0.80;;;;;;;5.18;71.76;98296.58;103956;1297;24297;-24
2022/01/30 00:54:43;;;;;;;3.50;0.70;;;;;;;5.64;69.69;98293.48;103897;1298;22534;-29
2022/01/30 00:57:09;;;;;;;8.30;1.40;;;;;;;6.03;67.80;98289.85;103869;1299;24318;-26
2022/01/30 00:59:35;;;;;;;4.40;1.30;;;;;;;5.88;69.63;98291.38;103916;1297;23080;-24
2022/01/30 01:02:03;;;;;;;4.30;0.70;;;;;;;6.11;69.11;98283.20;103998;1299;24402;-30
2022/01/30 01:04:29;;;;;;;3.00;0.50;;;;;;;6.35;67.83;98278.36;103841;1299;24180;-32
2022/01/30 01:06:54;;;;;;;4.10;0.80;;;;;;;6.08;68.59;98277.90;103908;1297;24190;-29
2022/01/30 01:09:30;;;;;;;7.20;2.50;;;;;;;6.38;67.17;98290.97;103929;1299;24265;-29
2022/01/30 01:24:21;;;;;;;6.20;1.30;;;;;;;5.86;70.38;98301.58;103927;1297;24354;-30
2022/01/30 01:26:47;;;;;;;4.30;0.60;;;;;;;5.14;75.27;98309.55;103877;1297;24548;-24
2022/01/30 01:29:12;;;;;;;7.60;1.20;;;;;;;5.02;75.50;98284.69;103882;1299;22697;-30
2022/01/30 01:31:38;;;;;;;4.00;1.00;;;;;;;4.74;75.05;98314.70;103869;1299;24182;-25
2022/01/30 01:36:33;;;;;;;1.80;0.90;;;;;;;5.26;74.33;98326.27;103913;1299;24342;-25
2022/01/30 01:38:58;;;;;;;1.00;0.50;;;;;;;5.15;73.84;98312.83;103909;1297;24209;-24
2022/01/30 01:41:26;;;;;;;7.80;1.10;;;;;;;4.91;75.06;98314.52;103935;1296;24192;-24
2022/01/30 01:43:52;;;;;;;10.10;2.30;;;;;;;5.04;74.76;98297.20;103925;1297;24310;-29
2022/01/30 01:46:22;;;;;;;5.10;1.70;;;;;;;5.03;75.22;98290.80;103882;1296;24323;-29
2022/01/30 01:48:52;;;;;;;12.60;1.40;;;;;;;4.99;74.37;98289.36;103851;1297;25474;-29
2022/01/30 01:51:22;;;;;;;4.60;0.60;;;;;;;5.26;72.17;98270.11;103828;1297;24358;-30
2022/01/30 01:53:50;;;;;;;2.80;0.60;;;;;;;5.18;71.81;98259.84;103911;1297;24315;-24
2022/01/30 01:56:16;;;;;;;4.60;1.50;;;;;;;5.55;70.04;98264.27;103889;1297;22599;-46
2022/01/30 01:58:42;;;;;;;11.80;2.40;;;;;;;5.48;68.45;98248.84;103883;1299;24205;-25
2022/01/30 02:01:08;;;;;;;4.90;1.00;;;;;;;5.45;67.23;98268.58;103908;1299;24343;-25
2022/01/30 02:03:36;;;;;;;3.70;1.40;;;;;;;5.48;68.22;98264.82;103848;1297;24195;-25
2022/01/30 02:06:04;;;;;;;6.50;1.80;;;;;;;5.51;67.81;98264.18;103917;1297;24288;-30
2022/01/30 02:11:18;;;;;;;11.30;0.80;;;;;;;5.20;68.51;98263.17;103860;1299;22508;-30
2022/01/30 02:26:08;;;;;;;6.60;1.70;;;;;;;5.23;67.91;98236.50;103779;1297;24251;-24
2022/01/30 02:28:34;;;;;;;6.50;2.20;;;;;;;5.23;66.21;98226.02;103845;1297;24250;-24
2022/01/30 02:31:06;;;;;;;2.30;0.50;;;;;;;5.31;65.62;98210.36;103871;1299;24250;-30
2022/01/30 02:33:32;;;;;;;6.20;2.10;;;;;;;5.19;66.26;98239.16;103884;1299;24252;-23
2022/01/30 02:35:58;;;;;;;6.00;1.10;;;;;;;5.44;64.60;98237.66;103860;1299;24214;-27
2022/01/30 02:38:24;;;;;;;6.70;1.80;;;;;;;5.39;64.99;98224.08;103906;1296;24371;-29
2022/01/30 02:40:53;;;;;;;3.00;0.90;;;;;;;5.32;65.27;98220.11;103804;1299;24298;-26
2022/01/30 02:43:23;;;;;;;3.20;0.50;;;;;;;5.41;63.85;98216.72;103902;1299;24213;-24
2022/01/30 02:46:02;;;;;;;7.30;1.20;;;;;;;5.59;63.13;98217.54;103615;1297;24271;-25
2022/01/30 02:48:44;;;;;;;11.40;2.10;;;;;;;5.64;61.70;98207.05;103814;1297;24233;-26
2022/01/30 02:51:11;;;;;;;7.30;1.40;;;;;;;5.73;61.52;98198.98;103877;1297;24984;-29
2022/01/30 02:53:41;;;;;;;1.50;0.20;;;;;;;5.69;61.49;98209.66;103861;1297;22841;-24
2022/01/30 02:56:07;;;;;;;7.70;1.50;;;;;;;5.48;62.85;98212.71;103643;1296;22719;-30
2022/01/30 02:58:33;;;;;;;7.60;1.40;;;;;;;5.46;62.69;98213.98;103821;1297;24465;-25
2022/01/30 03:00:59;;;;;;;10.10;0.90;;;;;;;5.38;62.32;98204.84;103866;1299;24259;-24
2022/01/30 03:03:24;;;;;;;15.60;1.80;;;;;;;5.37;62.85;98227.20;103845;1297;22508;-26
2022/01/30 03:05:50;;;;;;;3.80;1.10;;;;;;;5.59;61.45;98204.14;103839;1296;24348;-24
2022/01/30 03:08:16;;;;;;;8.40;1.70;;;;;;;5.52;60.73;98204.20;103830;1297;24245;-24
2022/01/30 03:10:42;;;;;;;4.00;1.00;;;;;;;5.24;61.15;98186.05;103911;1297;24146;-24
2022/01/30 03:13:08;;;;;;;7.90;0.70;;;;;;;5.14;62.35;98205.54;103916;1299;24282;-24
2022/01/30 03:15:34;;;;;;;2.60;0.40;;;;;;;4.96;63.38;98214.46;103907;1297;22678;-25
2022/01/30 03:18:01;;;;;;;20.80;1.80;;;;;;;5.13;62.67;98199.67;103871;1299;24182;-24
2022/01/30 03:20:27;;;;;;;7.40;1.40;;;;;;;5.14;61.92;98199.35;103902;1299;22742;-26
2022/01/30 03:22:53;;;;;;;5.60;0.90;;;;;;;5.39;61.35;98211.13;103812;1297;24467;-30
2022/01/30 03:25:19;;;;;;;7.90;1.30;;;;;;;5.59;61.73;98200.00;103935;1298;24352;-26
2022/01/30 03:27:51;;;;;;;9.70;1.60;;;;;;;5.52;63.30;98210.92;103910;1299;24329;-24
2022/01/30 03:30:24;;;;;;;5.50;1.30;;;;;;;5.40;64.22;98215.46;103865;1299;22506;-30
2022/01/30 03:32:50;;;;;;;3.10;0.40;;;;;;;5.13;64.74;98220.73;103890;1297;24331;-24
2022/01/30 03:35:16;;;;;;;8.80;1.70;;;;;;;4.82;66.66;98229.75;103958;1297;24328;-24
2022/01/30 03:37:41;;;;;;;4.40;1.20;;;;;;;4.54;67.84;98208.83;103882;1299;24275;-30
2022/01/30 03:40:07;;;;;;;12.60;1.80;;;;;;;4.66;67.09;98215.33;103864;1297;24190;-29
2022/01/30 03:42:33;;;;;;;5.20;0.90;;;;;;;4.66;65.98;98201.95;103857;1298;22524;-30
2022/01/30 03:44:59;;;;;;;8.40;2.00;;;;;;;4.68;66.58;98210.89;103926;1299;24181;-30
2022/01/30 03:47:26;;;;;;;3.90;1.10;;;;;;;4.74;65.96;98196.48;103726;1299;24194;-30
2022/01/30 03:49:52;;;;;;;5.40;1.60;;;;;;;4.80;63.69;98171.62;103833;1299;24413;-30
2022/01/30 03:52:18;;;;;;;4.20;0.90;;;;;;;5.09;63.22;98189.81;103883;1297;24008;-29
2022/01/30 03:54:44;;;;;;;3.80;1.20;;;;;;;5.10;62.98;98190.73;103884;1299;24136;-26
2022/01/30 03:57:10;;;;;;;12.80;1.40;;;;;;;5.10;63.44;98188.48;103865;1299;24238;-25
2022/01/30 03:59:36;;;;;;;3.80;0.80;;;;;;;5.17;61.61;98197.84;103880;1299;24201;-24
2022/01/30 04:02:02;;;;;;;7.30;2.20;;;;;;;5.17;61.88;98178.41;103891;1297;24249;-30
2022/01/30 04:04:28;;;;;;;4.40;1.30;;;;;;;5.12;62.58;98176.66;103869;1299;24477;-31
2022/01/30 04:06:56;;;;;;;9.80;1.60;;;;;;;5.01;63.15;98185.52;103901;1297;24248;-28
2022/01/30 04:09:22;;;;;;;4.80;1.20;;;;;;;5.24;61.14;98153.95;103479;1297;604733;-24
2022/01/30 04:11:48;;;;;;;8.60;2.40;;;;;;;5.23;60.89;98140.94;103901;1299;24236;-27
2022/01/30 04:14:14;;;;;;;13.40;2.30;;;;;;;5.34;61.10;98148.50;103808;1297;24285;-27
2022/01/30 04:16:40;;;;;;;8.60;1.40;;;;;;;5.22;62.50;98152.41;103853;1299;24213;-24
2022/01/30 04:19:07;;;;;;;6.50;1.90;;;;;;;5.03;63.46;98158.35;103716;1298;24163;-29
2022/01/30 04:21:33;;;;;;;6.80;1.20;;;;;;;5.22;62.02;98137.48;103775;1297;24172;-24
2022/01/30 04:23:58;;;;;;;4.10;1.90;;;;;;;5.24;63.13;98145.35;103886;1299;24307;-32
2022/01/30 04:26:24;;;;;;;2.50;0.90;;;;;;;5.25;63.20;98146.91;103914;1299;24273;-24
2022/01/30 04:28:50;;;;;;;10.80;2.20;;;;;;;5.08;64.02;98127.50;103904;1297;24219;-30
2022/01/30 04:31:16;;;;;;;10.10;2.30;;;;;;;5.11;64.10;98142.45;103888;1297;24286;-25
2022/01/30 04:33:42;;;;;;;9.10;2.30;;;;;;;5.00;64.51;98128.46;103887;1299;24199;-30
2022/01/30 04:36:09;;;;;;;3.60;1.10;;;;;;;5.07;64.30;98129.58;103868;1297;24257;-30
2022/01/30 04:38:53;;;;;;;7.90;1.30;;;;;;;4.95;65.00;98146.95;103914;1299;24207;-25
2022/01/30 04:41:34;;;;;;;8.30;2.20;;;;;;;5.07;64.12;98140.63;103923;1299;24211;-29
2022/01/30 04:59:10;;;;;;;6.70;2.10;;;;;;;5.05;63.31;98115.31;103890;1299;24253;-29
2022/01/30 05:06:55;;;;;;;3.70;1.20;;;;;;;4.74;64.61;98086.40;103723;1298;24423;-24
2022/01/30 05:09:20;;;;;;;11.20;1.80;;;;;;;4.89;64.38;98110.06;103854;1297;22497;-24
2022/01/30 05:11:46;;;;;;;6.10;1.90;;;;;;;4.72;64.90;98082.49;103854;1299;24174;-30
2022/01/30 05:14:14;;;;;;;9.50;1.60;;;;;;;4.71;65.26;98085.89;103877;1297;24226;-25
2022/01/30 05:16:40;;;;;;;12.20;1.00;;;;;;;4.70;65.34;98083.46;103891;1297;24170;-30
2022/01/30 05:19:06;;;;;;;1.60;0.70;;;;;;;4.54;66.13;98085.20;103944;1296;24339;-29
2022/01/30 05:21:32;;;;;;;11.90;1.10;;;;;;;4.64;66.02;98091.13;103678;1298;24257;-25
2022/01/30 05:23:59;;;;;;;9.10;2.50;;;;;;;4.63;66.34;98086.27;103920;1297;24299;-25
2022/01/30 05:26:25;;;;;;;12.60;1.90;;;;;;;4.48;66.98;98085.67;103921;1299;24185;-31
2022/01/30 05:28:52;;;;;;;11.00;1.10;;;;;;;4.65;66.05;98067.42;103893;1297;24160;-30
2022/01/30 05:31:18;;;;;;;2.60;0.80;;;;;;;4.60;66.38;98057.08;103892;1299;24329;-29
2022/01/30 05:33:44;;;;;;;10.60;1.80;;;;;;;4.60;65.23;98049.25;103704;1297;24339;-26
2022/01/30 05:36:10;;;;;;;7.10;1.60;;;;;;;4.65;65.01;98046.33;103888;1297;24220;-24
2022/01/30 05:38:36;;;;;;;7.30;1.30;;;;;;;4.63;65.33;98064.17;103858;1299;24295;-24
2022/01/30 05:41:02;;;;;;;9.80;1.90;;;;;;;4.56;65.18;98032.59;103765;1299;24375;-25
2022/01/30 05:43:31;;;;;;;11.50;2.10;;;;;;;4.57;65.27;98038.69;103885;1299;24202;-27
2022/01/30 05:46:08;;;;;;;12.30;1.90;;;;;;;4.78;64.78;98041.47;103871;1299;22515;-25
2022/01/30 05:48:34;;;;;;;7.50;1.10;;;;;;;4.58;65.74;98054.31;103851;1299;24298;-25
2022/01/30 05:51:00;;;;;;;6.70;1.60;;;;;;;4.66;65.21;98037.70;103815;1299;24371;-29
2022/01/30 05:53:26;;;;;;;14.70;1.90;;;;;;;4.41;66.24;98042.45;103825;1297;24321;-25
2022/01/30 05:55:51;;;;;;;8.20;1.90;;;;;;;4.75;64.58;98027.08;103865;1297;24713;-31
2022/01/30 05:58:18;;;;;;;6.20;1.60;;;;;;;4.67;64.79;98042.23;103833;1299;24190;-31
2022/01/30 06:00:43;;;;;;;5.40;1.60;;;;;;;4.65;64.69;98024.34;103881;1297;24442;-31
2022/01/30 06:03:09;;;;;;;6.50;0.80;;;;;;;4.68;65.17;98039.59;103810;1297;24194;-31
2022/01/30 06:05:35;;;;;;;6.30;1.70;;;;;;;4.65;64.66;98017.47;103815;1299;24243;-30
2022/01/30 06:08:10;;;;;;;5.90;0.70;;;;;;;4.66;64.73;98013.64;103812;1297;24255;-25
2022/01/30 06:10:36;;;;;;;5.50;1.10;;;;;;;4.64;64.94;98049.90;103861;1297;22724;-25
2022/01/30 06:13:02;;;;;;;4.20;0.90;;;;;;;4.62;64.93;98058.73;103719;1297;24786;-23
2022/01/30 06:15:27;;;;;;;5.10;0.80;;;;;;;4.57;64.92;98046.98;103844;1297;24340;-26
2022/01/30 06:17:53;;;;;;;2.90;1.00;;;;;;;4.62;65.08;98032.78;103918;1299;24387;-32
2022/01/30 06:20:19;;;;;;;5.60;2.00;;;;;;;4.65;64.95;98040.70;103756;1299;24262;-25
2022/01/30 06:22:44;;;;;;;11.70;2.20;;;;;;;4.49;65.60;98032.02;103928;1297;24350;-25
2022/01/30 06:25:10;;;;;;;3.60;0.90;;;;;;;4.65;65.64;98015.88;103820;1299;24327;-29
2022/01/30 06:27:36;;;;;;;6.70;1.20;;;;;;;4.55;65.88;98023.69;103953;1297;24253;-29
2022/01/30 06:30:04;;;;;;;5.10;1.40;;;;;;;4.50;66.50;98018.09;103897;1297;22729;-29
2022/01/30 06:32:30;;;;;;;10.60;1.70;;;;;;;4.76;65.48;98019.44;103931;1299;24171;-25
2022/01/30 06:34:56;;;;;;;7.80;1.70;;;;;;;4.59;66.44;98001.20;103833;1297;24211;-25
2022/01/30 06:37:22;;;;;;;7.70;1.90;;;;;;;4.42;67.51;98018.52;103863;1297;24171;-29
2022/01/30 06:39:48;;;;;;;8.00;2.40;;;;;;;4.24;69.14;98003.91;103859;1299;24141;-31
2022/01/30 06:42:13;;;;;;;13.60;1.70;;;;;;;3.75;73.51;98037.55;103816;1297;24195;-24
2022/01/30 06:44:39;;;;;;;10.60;1.10;;;;;;;3.15;78.12;98043.60;103862;1297;24367;-30
2022/01/30 06:47:05;;;;;;;8.30;1.00;;;;;;;2.59;82.59;98084.59;103803;1297;24361;-27
2022/01/30 06:49:31;;;;;;;5.50;1.90;;;;;;;2.58;83.50;98058.08;103797;1297;24283;-29
2022/01/30 06:51:57;;;;;;;9.90;1.70;;;;;;;2.93;81.91;98049.39;103852;1297;24249;-30
2022/01/30 06:54:22;;;;;;;24.10;0.50;;;;;;;2.90;81.55;98052.94;103810;1299;24225;-30
2022/01/30 06:56:48;;;;;;;2.30;1.10;;;;;;;2.86;81.91;98065.44;103860;1297;24443;-30
2022/01/30 06:59:13;;;;;;;6.20;1.10;;;;;;;2.96;80.58;98051.58;103887;1299;24255;-24
2022/01/30 07:01:39;;;;;;;5.20;0.80;;;;;;;3.08;79.26;98052.19;103793;1299;24322;-29
2022/01/30 07:04:05;;;;;;;4.20;0.70;;;;;;;3.09;79.39;98053.84;103639;1298;24176;-32
2022/01/30 07:06:30;;;;;;;8.90;1.10;;;;;;;2.83;80.63;98069.98;103851;1299;24328;-29
2022/01/30 07:08:56;;;;;;;10.30;0.70;;;;;;;2.81;81.12;98096.65;103891;1299;22697;-26
2022/01/30 07:11:22;;;;;;;9.90;0.60;;;;;;;2.48;83.53;98097.81;103837;1297;22616;-30
2022/01/30 07:13:47;;;;;;;8.10;2.30;;;;;;;2.60;83.65;98080.68;103824;1298;24323;-23
2022/01/30 07:16:15;;;;;;;4.70;1.20;;;;;;;2.71;83.87;98068.96;103823;1297;24263;-32
2022/01/30 07:18:41;;;;;;;9.00;1.60;;;;;;;2.51;86.06;98067.40;103849;1299;22554;-24
2022/01/30 07:21:09;;;;;;;9.00;1.80;;;;;;;1.88;89.70;98076.33;103888;1299;24200;-24
2022/01/30 07:23:36;;;;;;;7.00;1.70;;;;;;;2.09;90.38;98078.64;103892;1299;24200;-26
2022/01/30 07:26:02;;;;;;;7.00;2.70;;;;;;;2.31;89.56;98058.35;103904;1297;24249;-30
2022/01/30 07:28:28;;;;;;;10.70;2.70;;;;;;;2.25;89.26;98058.55;103916;1297;24126;-29
2022/01/30 07:30:54;;;;;;;13.20;2.80;;;;;;;1.94;91.05;98070.03;103915;1299;24321;-32
2022/01/30 07:33:20;;;;;;;6.30;1.20;;;;;;;1.76;93.06;98061.52;103908;1299;24197;-24
2022/01/30 07:35:45;;;;;;;9.70;2.70;;;;;;;1.81;93.31;98061.59;103861;1296;24227;-24
2022/01/30 07:38:12;;;;;;;9.30;2.70;;;;;;;2.03;92.38;98033.68;103875;1299;24256;-30
2022/01/30 07:40:38;;;;;;;9.60;2.80;;;;;;;1.85;92.66;98033.80;103836;1299;24238;-23
2022/01/30 07:43:04;;;;;;;11.10;2.60;;;;;;;1.93;92.94;98031.46;103979;1297;24172;-27
2022/01/30 07:45:29;;;;;;;12.90;2.30;;;;;;;2.34;90.87;98032.95;103856;1297;24354;-23
2022/01/30 07:47:55;;;;;;;14.90;2.90;;;;;;;2.39;89.39;98035.08;103785;1298;24375;-24
2022/01/30 07:50:21;;;;;;;12.80;3.50;;;;;;;2.71;86.73;98026.34;103823;1297;22512;-29
2022/01/30 07:52:47;;;;;;;9.00;1.70;;;;;;;2.77;85.83;98039.29;103843;1299;24183;-32
2022/01/30 07:55:12;;;;;;;11.80;1.00;;;;;;;3.00;83.24;98017.27;103853;1299;22508;-24
2022/01/30 07:57:38;;;;;;;5.60;0.70;;;;;;;2.91;82.92;98026.13;103787;1299;24217;-29
2022/01/30 08:00:04;;;;;;;11.50;3.00;;;;;;;3.11;82.41;98022.77;103868;1297;24175;-29
2022/01/30 08:02:30;;;;;;;5.60;1.90;;;;;;;3.23;81.52;98013.10;103863;1299;24273;-29
2022/01/30 08:04:55;;;;;;;11.20;2.70;;;;;;;3.27;80.65;98020.63;103817;1299;24349;-29
2022/01/30 08:07:22;;;;;;;5.40;1.40;;;;;;;3.52;80.02;98019.23;103842;1297;22711;-26
2022/01/30 08:09:48;;;;;;;12.70;0.80;;;;;;;3.45;79.79;98018.41;103876;1299;24381;-31
2022/01/30 08:12:15;;;;;;;10.00;2.30;;;;;;;3.37;80.35;98021.29;103917;1299;24183;-24
2022/01/30 08:14:40;;;;;;;10.80;2.70;;;;;;;3.42;79.81;98018.13;103812;1297;24383;-29
2022/01/30 08:17:06;;;;;;;84.30;26.60;;;;;;;3.41;79.42;98009.83;103828;1297;24345;-29
2022/01/30 08:19:32;;;;;;;31.90;17.10;;;;;;;3.58;78.33;98003.25;103782;1297;24251;-29
2022/01/30 08:22:00;;;;;;;20.60;8.40;;;;;;;3.81;76.25;98030.89;103879;1299;24213;-29
2022/01/30 08:24:26;;;;;;;35.90;12.50;;;;;;;3.75;76.50;98038.87;103738;1299;23954;-29
2022/01/30 08:26:52;;;;;;;37.90;13.50;;;;;;;3.68;76.58;98024.29;103623;1298;24187;-23
2022/01/30 08:29:17;;;;;;;9.80;1.90;;;;;;;3.76;76.86;98034.19;103883;1297;24368;-24
2022/01/30 08:31:43;;;;;;;26.90;10.60;;;;;;;3.80;76.04;98028.35;103795;1297;24208;-24
2022/01/30 08:34:09;;;;;;;14.50;4.70;;;;;;;3.80;75.75;98022.66;103863;1297;24185;-24
2022/01/30 08:36:35;;;;;;;19.30;6.70;;;;;;;4.10;73.85;98020.74;103813;1297;24226;-29
2022/01/30 08:39:00;;;;;;;12.20;5.20;;;;;;;4.03;74.01;98005.52;103662;1298;24301;-28
2022/01/30 08:41:26;;;;;;;6.60;2.10;;;;;;;4.07;73.63;98018.77;103867;1299;24226;-29
2022/01/30 08:43:51;;;;;;;22.30;1.40;;;;;;;4.12;73.69;98029.14;103861;1297;24250;-31
2022/01/30 08:46:17;;;;;;;7.30;2.80;;;;;;;4.15;73.11;98007.00;103799;1297;24182;-27
2022/01/30 08:48:43;;;;;;;31.80;3.90;;;;;;;4.06;73.48;98013.49;103838;1299;24261;-31
2022/01/30 08:51:09;;;;;;;6.10;2.40;;;;;;;4.09;73.53;98023.02;103870;1297;24632;-28
2022/01/30 08:53:34;;;;;;;14.70;1.50;;;;;;;4.00;73.71;98024.27;103919;1297;24297;-28
2022/01/30 08:56:00;;;;;;;9.60;1.90;;;;;;;4.18;73.45;98020.81;103779;1297;24215;-24
2022/01/30 08:58:26;;;;;;;21.20;3.20;;;;;;;4.11;73.45;98019.73;103865;1297;24253;-29
2022/01/30 09:00:52;;;;;;;9.30;1.90;;;;;;;3.92;73.63;98012.05;103849;1299;22510;-26
2022/01/30 09:03:18;;;;;;;10.60;2.80;;;;;;;4.30;72.08;98002.42;103835;1297;24222;-24
2022/01/30 09:05:44;;;;;;;9.40;2.00;;;;;;;4.12;72.85;98026.58;103904;1299;24449;-24
2022/01/30 09:08:09;;;;;;;7.10;0.60;;;;;;;4.20;73.06;98039.90;103868;1298;25348;-23
2022/01/30 09:10:36;;;;;;;21.50;2.60;;;;;;;3.78;75.48;98050.75;103831;1299;22638;-30
2022/01/30 09:13:03;;;;;;;6.60;1.50;;;;;;;3.98;75.01;98048.68;103780;1298;24160;-29
2022/01/30 09:15:29;;;;;;;6.00;1.20;;;;;;;3.91;75.22;98057.94;103834;1299;24203;-29
2022/01/30 09:17:57;;;;;;;10.20;1.00;;;;;;;3.49;76.14;98046.63;103907;1298;24229;-26
2022/01/30 09:20:24;;;;;;;5.40;1.20;;;;;;;3.81;76.27;98065.09;103799;1299;24171;-29
2022/01/30 09:22:51;;;;;;;7.20;0.90;;;;;;;3.69;77.07;98067.52;103859;1299;24188;-29
2022/01/30 09:25:17;;;;;;;9.80;1.00;;;;;;;3.52;77.71;98083.55;103861;1299;22885;-24
2022/01/30 09:27:43;;;;;;;6.00;1.70;;;;;;;3.42;78.56;98097.28;103850;1299;24211;-29
2022/01/30 09:30:09;;;;;;;12.40;2.60;;;;;;;2.97;80.60;98088.84;103783;1299;24177;-25
2022/01/30 09:32:35;;;;;;;2.10;0.50;;;;;;;2.76;82.60;98116.98;103827;1299;24183;-29
2022/01/30 09:35:01;;;;;;;10.90;3.20;;;;;;;2.48;85.53;98108.73;103770;1299;24197;-29
2022/01/30 09:37:27;;;;;;;6.90;0.80;;;;;;;2.10;88.34;98132.98;103804;1299;24321;-23
2022/01/30 09:39:52;;;;;;;16.00;2.30;;;;;;;1.65;91.91;98148.85;103819;1299;24183;-24
2022/01/30 09:42:18;;;;;;;13.40;1.70;;;;;;;1.71;92.74;98140.61;103816;1297;24367;-24
2022/01/30 09:44:44;;;;;;;9.50;1.20;;;;;;;1.36;94.68;98120.27;103732;1297;24410;-24
2022/01/30 09:47:11;;;;;;;3.70;0.90;;;;;;;1.56;94.95;98124.21;103818;1299;24249;-30
2022/01/30 09:49:39;;;;;;;10.90;2.30;;;;;;;1.45;95.30;98139.46;103851;1297;23882;-32
2022/01/30 09:52:05;;;;;;;10.00;1.30;;;;;;;1.30;96.38;98151.70;103888;1299;24183;-24
2022/01/30 09:54:31;;;;;;;6.90;1.00;;;;;;;1.23;97.75;98142.23;103773;1297;24329;-25
2022/01/30 09:56:57;;;;;;;9.50;1.50;;;;;;;1.39;97.42;98121.88;103837;1297;22506;-25
2022/01/30 09:59:22;;;;;;;8.00;1.30;;;;;;;1.56;96.16;98132.58;103849;1299;24313;-32
2022/01/30 10:01:48;;;;;;;18.70;4.30;;;;;;;1.65;95.60;98133.65;103824;1297;24227;-25
2022/01/30 10:04:14;;;;;;;12.00;3.10;;;;;;;2.21;92.62;98135.80;103778;1299;24666;-24
2022/01/30 10:06:46;;;;;;;11.90;2.30;;;;;;;2.36;90.34;98111.56;103846;1299;24351;-25
2022/01/30 10:09:25;;;;;;;13.20;2.10;;;;;;;2.21;90.71;98136.89;103894;1298;22711;-26
2022/01/30 10:12:01;;;;;;;0.90;0.30;;;;;;;2.41;90.63;98131.27;103864;1299;25053;-30
2022/01/30 10:14:27;;;;;;;8.60;2.10;;;;;;;2.77;88.54;98146.73;103832;1299;24190;-24
2022/01/30 10:16:53;;;;;;;9.90;2.30;;;;;;;2.92;88.10;98135.95;103829;1299;24448;-24
2022/01/30 10:19:21;;;;;;;13.80;3.30;;;;;;;2.87;88.70;98157.00;103839;1299;24326;-24
2022/01/30 10:21:48;;;;;;;5.70;0.80;;;;;;;3.22;85.19;98122.52;103881;1297;22570;-24
2022/01/30 10:24:21;;;;;;;13.40;3.00;;;;;;;3.31;84.48;98128.58;103860;1299;24262;-30
2022/01/30 10:26:47;;;;;;;3.50;0.70;;;;;;;3.25;85.05;98121.70;103845;1299;24170;-24
2022/01/30 10:29:21;;;;;;;13.50;2.50;;;;;;;3.42;83.95;98131.91;103932;1299;22872;-33
2022/01/30 10:31:54;;;;;;;6.90;2.30;;;;;;;3.40;83.18;98107.02;103987;1299;23978;-24
2022/01/30 10:34:20;;;;;;;7.60;2.10;;;;;;;3.39;82.34;98078.84;103947;1299;23924;-28
2022/01/30 10:36:46;;;;;;;20.20;2.70;;;;;;;3.57;80.99;98094.11;103967;1299;24196;-24
2022/01/30 10:39:15;;;;;;;8.20;1.00;;;;;;;3.92;80.23;98096.48;103854;1299;24251;-24
2022/01/30 10:41:44;;;;;;;7.50;2.00;;;;;;;3.93;78.96;98090.34;103885;1299;24333;-29
2022/01/30 10:44:10;;;;;;;6.10;0.80;;;;;;;4.16;77.14;98081.91;103788;1298;24420;-29
2022/01/30 10:46:40;;;;;;;27.30;8.90;;;;;;;4.19;78.58;98106.47;103866;1297;24240;-29
2022/01/30 10:49:08;;;;;;;18.90;6.90;;;;;;;4.21;78.33;98100.00;103935;1299;24294;-24
2022/01/30 10:51:34;;;;;;;44.80;16.10;;;;;;;4.17;76.74;98071.99;103933;1299;24391;-24
2022/01/30 10:54:08;;;;;;;67.10;17.30;;;;;;;4.56;75.48;98056.18;103893;1297;24183;-24
2022/01/30 10:56:35;;;;;;;44.80;15.60;;;;;;;4.69;74.81;98066.09;103862;1299;22511;-24
2022/01/30 10:59:07;;;;;;;9.90;5.80;;;;;;;4.70;75.55;98102.98;103767;1298;24435;-29
2022/01/30 11:01:33;;;;;;;21.20;1.60;;;;;;;4.55;74.55;98086.46;103824;1299;24392;-24
2022/01/30 11:04:00;;;;;;;15.60;3.70;;;;;;;4.32;75.74;98064.48;103830;1299;24193;-28
2022/01/30 11:06:28;;;;;;;6.90;2.20;;;;;;;4.42;73.93;98037.86;103942;1299;22635;-29
2022/01/30 11:08:54;;;;;;;9.90;2.00;;;;;;;4.34;74.43;98085.98;103783;1299;24133;-25
2022/01/30 11:18:52;;;;;;;13.40;5.20;;;;;;;4.17;74.68;98108.98;103855;1299;24253;-30
2022/01/30 11:21:20;;;;;;;7.50;2.90;;;;;;;4.37;73.55;98065.81;103660;1298;24343;-29
2022/01/30 11:23:46;;;;;;;7.00;3.20;;;;;;;4.11;75.85;98106.42;103742;1299;24294;-29
2022/01/30 11:26:13;;;;;;;12.00;3.50;;;;;;;3.98;74.91;98086.01;103867;1297;22622;-30
2022/01/30 11:28:38;;;;;;;11.30;1.30;;;;;;;3.92;75.28;98097.66;103866;1299;24417;-24
2022/01/30 11:31:04;;;;;;;13.10;2.00;;;;;;;3.90;75.72;98134.55;103776;1298;24197;-25
2022/01/30 11:33:31;;;;;;;20.50;4.20;;;;;;;4.09;74.27;98127.90;103786;1299;24331;-24
2022/01/30 11:35:56;;;;;;;6.20;0.90;;;;;;;4.30;73.49;98104.56;103901;1299;24274;-24
2022/01/30 11:38:22;;;;;;;10.10;2.40;;;;;;;4.05;74.19;98095.82;103827;1297;24208;-24
2022/01/30 11:41:09;;;;;;;15.40;2.20;;;;;;;4.40;73.32;98093.61;103826;1299;24252;-24
2022/01/30 11:43:34;;;;;;;11.30;1.60;;;;;;;4.23;73.40;98099.98;103874;1297;22560;-24
2022/01/30 11:46:07;;;;;;;8.80;1.60;;;;;;;4.16;74.91;98153.87;103845;1297;24277;-29
2022/01/30 11:48:32;;;;;;;11.20;3.10;;;;;;;4.31;73.88;98122.14;103861;1299;24392;-24
2022/01/30 11:51:02;;;;;;;11.10;4.00;;;;;;;4.27;74.15;98167.98;103894;1299;24373;-24
2022/01/30 11:53:28;;;;;;;7.00;0.90;;;;;;;4.37;74.49;98166.79;103851;1299;24312;-24
2022/01/30 11:55:56;;;;;;;12.50;3.00;;;;;;;4.31;73.90;98155.98;103929;1297;24360;-24
2022/01/30 11:58:29;;;;;;;13.80;3.30;;;;;;;4.60;72.98;98189.98;103859;1299;24314;-25
2022/01/30 12:00:55;;;;;;;9.00;2.20;;;;;;;4.25;75.04;98184.72;103850;1299;22606;-24
2022/01/30 12:03:23;;;;;;;7.90;1.50;;;;;;;4.44;74.57;98180.48;103724;1299;24413;-27
2022/01/30 12:05:49;;;;;;;13.30;1.70;;;;;;;4.32;74.71;98146.40;103849;1299;24222;-29
2022/01/30 12:08:22;;;;;;;6.20;2.20;;;;;;;4.23;76.93;98186.08;103886;1297;24329;-31
2022/01/30 12:10:48;;;;;;;8.70;1.80;;;;;;;3.91;77.64;98172.79;103335;1299;787864;-32
2022/01/30 12:13:14;;;;;;;9.60;2.90;;;;;;;4.01;78.11;98195.30;103833;1299;24225;-24
2022/01/30 12:15:43;;;;;;;8.50;1.50;;;;;;;3.64;79.61;98150.42;103863;1299;24360;-29
2022/01/30 12:18:12;;;;;;;9.70;1.70;;;;;;;3.33;81.45;98156.13;103867;1299;24241;-29
2022/01/30 12:20:45;;;;;;;24.80;3.20;;;;;;;3.35;82.12;98181.46;103878;1299;25369;-29
2022/01/30 12:23:24;;;;;;;21.80;1.60;;;;;;;3.04;83.31;98227.41;103893;1297;25464;-31
2022/01/30 12:25:54;;;;;;;2.60;1.30;;;;;;;3.16;83.91;98218.95;103874;1299;22864;-29